sensor_id;sensor_type;location;lat;lon;timestamp;P1;durP1;ratioP1;P2;durP2;ratioP2
19814;SDS011;10067;53.092;8.800;2023-02-15T00:01:58;50.33;;;30.50;;
19814;SDS011;10067;53.092;8.800;2023-02-15T00:04:26;49.47;;;28.87;;
19814;SDS011;10067;53.092;8.800;2023-02-15T00:07:08;50.37;;;28.90;;
19814;SDS011;10067;53.092;8.800;2023-02-15T00:09:35;55.03;;;29.57;;
19814;SDS011;10067;53.092;8.800;2023-02-15T00:12:01;51.07;;;30.10;;
19814;SDS011;10067;53.092;8.800;2023-02-15T00:14:28;52.40;;;30.03;;
19814;SDS011;10067;53.092;8.800;2023-02-15T00:16:55;54.80;;;28.80;;
19814;SDS011;10067;53.092;8.800;2023-02-15T00:19:24;49.83;;;29.03;;
19814;SDS011;10067;53.092;8.800;2023-02-15T00:21:51;49.00;;;29.47;;
19814;SDS011;10067;53.092;8.800;2023-02-15T00:24:19;49.50;;;29.23;;
19814;SDS011;10067;53.092;8.800;2023-02-15T00:26:45;52.43;;;29.87;;
19814;SDS011;10067;53.092;8.800;2023-02-15T00:29:12;51.47;;;30.80;;
19814;SDS011;10067;53.092;8.800;2023-02-15T00:31:40;53.70;;;30.10;;
19814;SDS011;10067;53.092;8.800;2023-02-15T00:34:07;53.07;;;30.13;;
19814;SDS011;10067;53.092;8.800;2023-02-15T00:36:36;56.87;;;30.33;;
19814;SDS011;10067;53.092;8.800;2023-02-15T00:39:02;53.00;;;31.53;;
19814;SDS011;10067;53.092;8.800;2023-02-15T00:41:31;56.67;;;33.00;;
19814;SDS011;10067;53.092;8.800;2023-02-15T00:43:57;55.33;;;32.17;;
19814;SDS011;10067;53.092;8.800;2023-02-15T00:46:23;52.20;;;31.40;;
19814;SDS011;10067;53.092;8.800;2023-02-15T00:48:50;52.37;;;32.40;;
19814;SDS011;10067;53.092;8.800;2023-02-15T00:51:16;57.97;;;33.13;;
19814;SDS011;10067;53.092;8.800;2023-02-15T00:53:43;57.30;;;31.93;;
19814;SDS011;10067;53.092;8.800;2023-02-15T00:56:10;54.60;;;32.57;;
19814;SDS011;10067;53.092;8.800;2023-02-15T00:58:38;55.30;;;32.47;;
19814;SDS011;10067;53.092;8.800;2023-02-15T01:01:05;62.20;;;34.57;;
19814;SDS011;10067;53.092;8.800;2023-02-15T01:03:32;66.20;;;35.33;;
19814;SDS011;10067;53.092;8.800;2023-02-15T01:05:58;62.87;;;34.53;;
19814;SDS011;10067;53.092;8.800;2023-02-15T01:08:25;69.17;;;37.53;;
19814;SDS011;10067;53.092;8.800;2023-02-15T01:10:52;72.53;;;36.97;;
19814;SDS011;10067;53.092;8.800;2023-02-15T01:13:18;72.70;;;36.43;;
19814;SDS011;10067;53.092;8.800;2023-02-15T01:15:51;71.07;;;35.93;;
19814;SDS011;10067;53.092;8.800;2023-02-15T01:18:18;73.73;;;36.60;;
19814;SDS011;10067;53.092;8.800;2023-02-15T01:20:45;73.53;;;35.43;;
19814;SDS011;10067;53.092;8.800;2023-02-15T01:23:12;69.73;;;35.10;;
19814;SDS011;10067;53.092;8.800;2023-02-15T01:25:38;74.53;;;34.77;;
19814;SDS011;10067;53.092;8.800;2023-02-15T01:28:05;73.07;;;35.80;;
19814;SDS011;10067;53.092;8.800;2023-02-15T01:30:31;76.80;;;36.90;;
19814;SDS011;10067;53.092;8.800;2023-02-15T01:32:59;80.00;;;35.20;;
19814;SDS011;10067;53.092;8.800;2023-02-15T01:35:26;79.77;;;36.63;;
19814;SDS011;10067;53.092;8.800;2023-02-15T01:37:53;68.00;;;33.73;;
19814;SDS011;10067;53.092;8.800;2023-02-15T01:40:20;71.13;;;32.70;;
19814;SDS011;10067;53.092;8.800;2023-02-15T01:42:49;61.17;;;30.80;;
19814;SDS011;10067;53.092;8.800;2023-02-15T01:45:18;68.97;;;30.70;;
19814;SDS011;10067;53.092;8.800;2023-02-15T01:47:47;58.20;;;31.03;;
19814;SDS011;10067;53.092;8.800;2023-02-15T01:50:16;70.07;;;30.30;;
19814;SDS011;10067;53.092;8.800;2023-02-15T01:52:44;52.27;;;30.77;;
19814;SDS011;10067;53.092;8.800;2023-02-15T01:55:12;57.77;;;31.37;;
19814;SDS011;10067;53.092;8.800;2023-02-15T01:57:38;56.67;;;30.70;;
19814;SDS011;10067;53.092;8.800;2023-02-15T02:00:06;60.40;;;30.63;;
19814;SDS011;10067;53.092;8.800;2023-02-15T02:02:33;52.10;;;29.80;;
19814;SDS011;10067;53.092;8.800;2023-02-15T02:05:00;53.87;;;29.33;;
19814;SDS011;10067;53.092;8.800;2023-02-15T02:07:34;49.27;;;28.53;;
19814;SDS011;10067;53.092;8.800;2023-02-15T02:10:01;47.27;;;27.97;;
19814;SDS011;10067;53.092;8.800;2023-02-15T02:12:28;54.73;;;28.83;;
19814;SDS011;10067;53.092;8.800;2023-02-15T02:14:55;47.40;;;28.37;;
19814;SDS011;10067;53.092;8.800;2023-02-15T02:17:24;49.00;;;28.47;;
19814;SDS011;10067;53.092;8.800;2023-02-15T02:22:52;52.73;;;30.07;;
19814;SDS011;10067;53.092;8.800;2023-02-15T02:25:36;51.80;;;29.67;;
19814;SDS011;10067;53.092;8.800;2023-02-15T02:28:12;48.30;;;29.83;;
19814;SDS011;10067;53.092;8.800;2023-02-15T02:30:49;47.57;;;27.93;;
19814;SDS011;10067;53.092;8.800;2023-02-15T02:36:08;50.37;;;28.47;;
19814;SDS011;10067;53.092;8.800;2023-02-15T02:38:42;46.33;;;27.57;;
19814;SDS011;10067;53.092;8.800;2023-02-15T02:41:13;48.97;;;28.70;;
19814;SDS011;10067;53.092;8.800;2023-02-15T02:43:44;47.40;;;28.10;;
19814;SDS011;10067;53.092;8.800;2023-02-15T02:46:15;43.43;;;26.37;;
19814;SDS011;10067;53.092;8.800;2023-02-15T02:48:45;48.63;;;27.43;;
19814;SDS011;10067;53.092;8.800;2023-02-15T02:51:14;44.83;;;26.30;;
19814;SDS011;10067;53.092;8.800;2023-02-15T02:53:46;46.23;;;28.10;;
19814;SDS011;10067;53.092;8.800;2023-02-15T02:56:15;42.73;;;26.47;;
19814;SDS011;10067;53.092;8.800;2023-02-15T02:58:46;43.37;;;26.23;;
19814;SDS011;10067;53.092;8.800;2023-02-15T03:01:15;44.63;;;26.17;;
19814;SDS011;10067;53.092;8.800;2023-02-15T03:03:42;43.37;;;26.23;;
19814;SDS011;10067;53.092;8.800;2023-02-15T03:06:10;47.60;;;25.77;;
19814;SDS011;10067;53.092;8.800;2023-02-15T03:08:40;42.80;;;26.27;;
19814;SDS011;10067;53.092;8.800;2023-02-15T03:11:08;40.07;;;23.73;;
19814;SDS011;10067;53.092;8.800;2023-02-15T03:13:35;42.17;;;25.73;;
19814;SDS011;10067;53.092;8.800;2023-02-15T03:16:01;40.40;;;24.03;;
19814;SDS011;10067;53.092;8.800;2023-02-15T03:18:48;43.57;;;25.90;;
19814;SDS011;10067;53.092;8.800;2023-02-15T03:21:24;42.33;;;24.47;;
19814;SDS011;10067;53.092;8.800;2023-02-15T03:23:53;45.60;;;25.40;;
19814;SDS011;10067;53.092;8.800;2023-02-15T03:26:20;47.43;;;26.20;;
19814;SDS011;10067;53.092;8.800;2023-02-15T03:28:47;44.23;;;26.03;;
19814;SDS011;10067;53.092;8.800;2023-02-15T03:31:16;44.20;;;26.17;;
19814;SDS011;10067;53.092;8.800;2023-02-15T03:33:44;47.77;;;25.87;;
19814;SDS011;10067;53.092;8.800;2023-02-15T03:36:15;46.53;;;26.47;;
19814;SDS011;10067;53.092;8.800;2023-02-15T03:38:47;44.40;;;26.67;;
19814;SDS011;10067;53.092;8.800;2023-02-15T03:41:17;45.07;;;26.03;;
19814;SDS011;10067;53.092;8.800;2023-02-15T03:43:47;42.13;;;25.60;;
19814;SDS011;10067;53.092;8.800;2023-02-15T03:46:16;44.03;;;26.13;;
19814;SDS011;10067;53.092;8.800;2023-02-15T03:48:44;40.33;;;24.10;;
19814;SDS011;10067;53.092;8.800;2023-02-15T03:51:14;40.60;;;24.23;;
19814;SDS011;10067;53.092;8.800;2023-02-15T03:54:01;35.23;;;22.33;;
19814;SDS011;10067;53.092;8.800;2023-02-15T03:56:30;34.63;;;20.80;;
19814;SDS011;10067;53.092;8.800;2023-02-15T03:58:57;34.63;;;21.53;;
19814;SDS011;10067;53.092;8.800;2023-02-15T04:01:45;31.23;;;20.53;;
19814;SDS011;10067;53.092;8.800;2023-02-15T04:04:27;34.80;;;21.33;;
19814;SDS011;10067;53.092;8.800;2023-02-15T04:06:54;33.23;;;22.13;;
19814;SDS011;10067;53.092;8.800;2023-02-15T04:09:21;33.60;;;21.53;;
19814;SDS011;10067;53.092;8.800;2023-02-15T04:12:06;33.57;;;21.27;;
19814;SDS011;10067;53.092;8.800;2023-02-15T04:14:32;32.63;;;20.83;;
19814;SDS011;10067;53.092;8.800;2023-02-15T04:17:16;31.43;;;20.93;;
19814;SDS011;10067;53.092;8.800;2023-02-15T04:19:43;32.03;;;20.77;;
19814;SDS011;10067;53.092;8.800;2023-02-15T04:22:27;32.97;;;21.70;;
19814;SDS011;10067;53.092;8.800;2023-02-15T04:25:10;31.47;;;21.20;;
19814;SDS011;10067;53.092;8.800;2023-02-15T04:27:39;35.30;;;21.87;;
19814;SDS011;10067;53.092;8.800;2023-02-15T04:30:06;32.37;;;20.77;;
19814;SDS011;10067;53.092;8.800;2023-02-15T04:32:33;31.90;;;22.00;;
19814;SDS011;10067;53.092;8.800;2023-02-15T04:35:00;35.20;;;22.00;;
19814;SDS011;10067;53.092;8.800;2023-02-15T04:37:26;34.83;;;21.97;;
19814;SDS011;10067;53.092;8.800;2023-02-15T04:39:52;36.50;;;22.70;;
19814;SDS011;10067;53.092;8.800;2023-02-15T04:42:19;35.30;;;22.53;;
19814;SDS011;10067;53.092;8.800;2023-02-15T04:44:47;35.90;;;22.63;;
19814;SDS011;10067;53.092;8.800;2023-02-15T04:47:13;34.30;;;21.87;;
19814;SDS011;10067;53.092;8.800;2023-02-15T04:49:39;35.37;;;22.70;;
19814;SDS011;10067;53.092;8.800;2023-02-15T04:52:06;41.07;;;22.83;;
19814;SDS011;10067;53.092;8.800;2023-02-15T04:54:32;36.00;;;21.53;;
19814;SDS011;10067;53.092;8.800;2023-02-15T04:56:58;34.83;;;22.30;;
19814;SDS011;10067;53.092;8.800;2023-02-15T04:59:25;32.43;;;21.50;;
19814;SDS011;10067;53.092;8.800;2023-02-15T05:01:53;33.87;;;21.40;;
19814;SDS011;10067;53.092;8.800;2023-02-15T05:04:19;34.50;;;21.80;;
19814;SDS011;10067;53.092;8.800;2023-02-15T05:06:45;31.43;;;20.43;;
19814;SDS011;10067;53.092;8.800;2023-02-15T05:09:12;36.80;;;21.97;;
19814;SDS011;10067;53.092;8.800;2023-02-15T05:11:38;36.90;;;22.33;;
19814;SDS011;10067;53.092;8.800;2023-02-15T05:14:05;33.53;;;20.67;;
19814;SDS011;10067;53.092;8.800;2023-02-15T05:16:31;36.33;;;22.53;;
19814;SDS011;10067;53.092;8.800;2023-02-15T05:18:59;39.67;;;21.83;;
19814;SDS011;10067;53.092;8.800;2023-02-15T05:21:25;37.50;;;21.83;;
19814;SDS011;10067;53.092;8.800;2023-02-15T05:23:52;35.50;;;22.53;;
19814;SDS011;10067;53.092;8.800;2023-02-15T05:26:21;34.90;;;22.43;;
19814;SDS011;10067;53.092;8.800;2023-02-15T05:29:06;39.47;;;22.00;;
19814;SDS011;10067;53.092;8.800;2023-02-15T05:31:33;38.03;;;22.50;;
19814;SDS011;10067;53.092;8.800;2023-02-15T05:34:01;33.60;;;21.17;;
19814;SDS011;10067;53.092;8.800;2023-02-15T05:36:27;38.13;;;22.10;;
19814;SDS011;10067;53.092;8.800;2023-02-15T05:38:54;38.13;;;22.70;;
19814;SDS011;10067;53.092;8.800;2023-02-15T05:41:20;39.20;;;22.97;;
19814;SDS011;10067;53.092;8.800;2023-02-15T05:43:47;35.77;;;22.03;;
19814;SDS011;10067;53.092;8.800;2023-02-15T05:46:13;33.40;;;21.27;;
19814;SDS011;10067;53.092;8.800;2023-02-15T05:48:39;35.93;;;21.97;;
19814;SDS011;10067;53.092;8.800;2023-02-15T05:51:08;34.00;;;21.10;;
19814;SDS011;10067;53.092;8.800;2023-02-15T05:53:36;33.07;;;21.43;;
19814;SDS011;10067;53.092;8.800;2023-02-15T05:56:03;32.60;;;20.70;;
19814;SDS011;10067;53.092;8.800;2023-02-15T05:58:30;35.80;;;21.97;;
19814;SDS011;10067;53.092;8.800;2023-02-15T06:00:57;32.83;;;20.93;;
19814;SDS011;10067;53.092;8.800;2023-02-15T06:03:24;34.77;;;21.93;;
19814;SDS011;10067;53.092;8.800;2023-02-15T06:05:53;33.60;;;21.07;;
19814;SDS011;10067;53.092;8.800;2023-02-15T06:08:21;33.47;;;21.37;;
19814;SDS011;10067;53.092;8.800;2023-02-15T06:10:47;34.83;;;21.23;;
19814;SDS011;10067;53.092;8.800;2023-02-15T06:13:14;30.30;;;20.73;;
19814;SDS011;10067;53.092;8.800;2023-02-15T06:15:41;30.70;;;20.30;;
19814;SDS011;10067;53.092;8.800;2023-02-15T06:18:07;33.00;;;20.43;;
19814;SDS011;10067;53.092;8.800;2023-02-15T06:20:36;31.63;;;20.47;;
19814;SDS011;10067;53.092;8.800;2023-02-15T06:23:03;29.43;;;20.10;;
19814;SDS011;10067;53.092;8.800;2023-02-15T06:25:31;32.93;;;20.37;;
19814;SDS011;10067;53.092;8.800;2023-02-15T06:27:57;28.53;;;18.57;;
19814;SDS011;10067;53.092;8.800;2023-02-15T06:30:24;32.03;;;19.93;;
19814;SDS011;10067;53.092;8.800;2023-02-15T06:32:50;27.73;;;19.40;;
19814;SDS011;10067;53.092;8.800;2023-02-15T06:35:16;30.90;;;19.30;;
19814;SDS011;10067;53.092;8.800;2023-02-15T06:37:45;29.63;;;19.87;;
19814;SDS011;10067;53.092;8.800;2023-02-15T06:40:11;30.33;;;19.17;;
19814;SDS011;10067;53.092;8.800;2023-02-15T06:42:39;30.43;;;19.07;;
19814;SDS011;10067;53.092;8.800;2023-02-15T06:45:06;28.87;;;19.17;;
19814;SDS011;10067;53.092;8.800;2023-02-15T06:47:32;26.33;;;19.10;;
19814;SDS011;10067;53.092;8.800;2023-02-15T06:49:59;26.50;;;18.43;;
19814;SDS011;10067;53.092;8.800;2023-02-15T06:52:25;26.10;;;17.83;;
19814;SDS011;10067;53.092;8.800;2023-02-15T06:54:51;27.03;;;18.63;;
19814;SDS011;10067;53.092;8.800;2023-02-15T06:57:18;29.23;;;18.97;;
19814;SDS011;10067;53.092;8.800;2023-02-15T06:59:46;28.50;;;19.03;;
19814;SDS011;10067;53.092;8.800;2023-02-15T07:02:12;28.77;;;18.23;;
19814;SDS011;10067;53.092;8.800;2023-02-15T07:04:39;27.67;;;18.93;;
19814;SDS011;10067;53.092;8.800;2023-02-15T07:07:07;27.33;;;19.17;;
19814;SDS011;10067;53.092;8.800;2023-02-15T07:09:34;26.97;;;18.70;;
19814;SDS011;10067;53.092;8.800;2023-02-15T07:12:01;25.83;;;18.80;;
19814;SDS011;10067;53.092;8.800;2023-02-15T07:14:46;27.13;;;19.37;;
19814;SDS011;10067;53.092;8.800;2023-02-15T07:17:13;28.73;;;18.90;;
19814;SDS011;10067;53.092;8.800;2023-02-15T07:19:39;28.77;;;18.97;;
19814;SDS011;10067;53.092;8.800;2023-02-15T07:22:06;25.30;;;18.93;;
19814;SDS011;10067;53.092;8.800;2023-02-15T07:24:32;26.90;;;17.67;;
19814;SDS011;10067;53.092;8.800;2023-02-15T07:26:58;24.83;;;17.37;;
19814;SDS011;10067;53.092;8.800;2023-02-15T07:29:25;26.47;;;17.67;;
19814;SDS011;10067;53.092;8.800;2023-02-15T07:31:53;26.60;;;18.17;;
19814;SDS011;10067;53.092;8.800;2023-02-15T07:34:19;29.40;;;18.27;;
19814;SDS011;10067;53.092;8.800;2023-02-15T07:36:46;29.63;;;19.33;;
19814;SDS011;10067;53.092;8.800;2023-02-15T07:39:12;30.30;;;19.27;;
19814;SDS011;10067;53.092;8.800;2023-02-15T07:41:39;33.03;;;22.70;;
19814;SDS011;10067;53.092;8.800;2023-02-15T07:44:05;31.20;;;21.77;;
19814;SDS011;10067;53.092;8.800;2023-02-15T07:46:31;30.13;;;19.53;;
19814;SDS011;10067;53.092;8.800;2023-02-15T07:48:59;27.87;;;18.63;;
19814;SDS011;10067;53.092;8.800;2023-02-15T07:51:26;25.07;;;17.80;;
19814;SDS011;10067;53.092;8.800;2023-02-15T07:53:52;26.77;;;19.07;;
19814;SDS011;10067;53.092;8.800;2023-02-15T07:56:18;29.20;;;19.23;;
19814;SDS011;10067;53.092;8.800;2023-02-15T07:58:45;27.27;;;18.63;;
19814;SDS011;10067;53.092;8.800;2023-02-15T08:01:18;23.30;;;17.60;;
19814;SDS011;10067;53.092;8.800;2023-02-15T08:03:44;27.73;;;21.10;;
19814;SDS011;10067;53.092;8.800;2023-02-15T08:06:12;25.67;;;18.73;;
19814;SDS011;10067;53.092;8.800;2023-02-15T08:08:39;27.77;;;18.73;;
19814;SDS011;10067;53.092;8.800;2023-02-15T08:11:06;26.93;;;18.80;;
19814;SDS011;10067;53.092;8.800;2023-02-15T08:13:50;24.23;;;17.50;;
19814;SDS011;10067;53.092;8.800;2023-02-15T08:16:28;27.50;;;19.40;;
19814;SDS011;10067;53.092;8.800;2023-02-15T08:18:54;26.37;;;17.47;;
19814;SDS011;10067;53.092;8.800;2023-02-15T08:21:23;25.53;;;18.87;;
19814;SDS011;10067;53.092;8.800;2023-02-15T08:23:50;25.90;;;18.23;;
19814;SDS011;10067;53.092;8.800;2023-02-15T08:26:17;26.60;;;19.00;;
19814;SDS011;10067;53.092;8.800;2023-02-15T08:28:43;25.83;;;17.47;;
19814;SDS011;10067;53.092;8.800;2023-02-15T08:31:11;24.93;;;18.33;;
19814;SDS011;10067;53.092;8.800;2023-02-15T08:33:38;27.87;;;18.23;;
19814;SDS011;10067;53.092;8.800;2023-02-15T08:36:06;25.13;;;19.33;;
19814;SDS011;10067;53.092;8.800;2023-02-15T08:38:35;25.90;;;19.20;;
19814;SDS011;10067;53.092;8.800;2023-02-15T08:41:08;29.07;;;19.67;;
19814;SDS011;10067;53.092;8.800;2023-02-15T08:43:35;27.83;;;19.30;;
19814;SDS011;10067;53.092;8.800;2023-02-15T08:46:01;28.63;;;20.30;;
19814;SDS011;10067;53.092;8.800;2023-02-15T08:48:27;27.10;;;19.43;;
19814;SDS011;10067;53.092;8.800;2023-02-15T08:50:54;30.33;;;19.60;;
19814;SDS011;10067;53.092;8.800;2023-02-15T08:53:20;29.93;;;20.20;;
19814;SDS011;10067;53.092;8.800;2023-02-15T08:55:48;27.47;;;19.23;;
19814;SDS011;10067;53.092;8.800;2023-02-15T08:58:20;26.43;;;19.53;;
19814;SDS011;10067;53.092;8.800;2023-02-15T09:00:47;30.70;;;19.53;;
19814;SDS011;10067;53.092;8.800;2023-02-15T09:03:13;29.53;;;19.70;;
19814;SDS011;10067;53.092;8.800;2023-02-15T09:05:39;31.50;;;19.67;;
19814;SDS011;10067;53.092;8.800;2023-02-15T09:08:06;27.17;;;19.47;;
19814;SDS011;10067;53.092;8.800;2023-02-15T09:10:32;31.03;;;19.93;;
19814;SDS011;10067;53.092;8.800;2023-02-15T09:13:00;31.97;;;20.07;;
19814;SDS011;10067;53.092;8.800;2023-02-15T09:15:26;31.70;;;21.20;;
19814;SDS011;10067;53.092;8.800;2023-02-15T09:17:53;31.83;;;20.87;;
19814;SDS011;10067;53.092;8.800;2023-02-15T09:20:19;29.33;;;19.83;;
19814;SDS011;10067;53.092;8.800;2023-02-15T09:22:46;28.50;;;19.63;;
19814;SDS011;10067;53.092;8.800;2023-02-15T09:25:13;30.30;;;21.30;;
19814;SDS011;10067;53.092;8.800;2023-02-15T09:27:39;29.17;;;20.60;;
19814;SDS011;10067;53.092;8.800;2023-02-15T09:30:08;28.50;;;20.17;;
19814;SDS011;10067;53.092;8.800;2023-02-15T09:32:34;30.67;;;20.77;;
19814;SDS011;10067;53.092;8.800;2023-02-15T09:35:01;32.53;;;20.80;;
19814;SDS011;10067;53.092;8.800;2023-02-15T09:37:27;28.80;;;20.43;;
19814;SDS011;10067;53.092;8.800;2023-02-15T09:39:53;29.33;;;20.40;;
19814;SDS011;10067;53.092;8.800;2023-02-15T09:45:08;26.73;;;19.37;;
19814;SDS011;10067;53.092;8.800;2023-02-15T09:47:53;36.50;;;19.87;;
19814;SDS011;10067;53.092;8.800;2023-02-15T09:50:24;31.33;;;20.50;;
19814;SDS011;10067;53.092;8.800;2023-02-15T09:52:55;24.63;;;18.40;;
19814;SDS011;10067;53.092;8.800;2023-02-15T09:55:33;29.45;;;19.15;;
19814;SDS011;10067;53.092;8.800;2023-02-15T09:58:05;25.73;;;18.75;;
19814;SDS011;10067;53.092;8.800;2023-02-15T10:00:37;23.52;;;17.52;;
19814;SDS011;10067;53.092;8.800;2023-02-15T10:03:16;28.52;;;17.95;;
19814;SDS011;10067;53.092;8.800;2023-02-15T10:05:50;27.38;;;19.85;;
19814;SDS011;10067;53.092;8.800;2023-02-15T10:08:27;26.05;;;18.83;;
19814;SDS011;10067;53.092;8.800;2023-02-15T10:10:57;26.42;;;19.30;;
19814;SDS011;10067;53.092;8.800;2023-02-15T10:13:48;28.92;;;19.52;;
19814;SDS011;10067;53.092;8.800;2023-02-15T10:16:22;29.98;;;18.15;;
19814;SDS011;10067;53.092;8.800;2023-02-15T10:18:54;26.92;;;19.02;;
19814;SDS011;10067;53.092;8.800;2023-02-15T10:21:29;28.00;;;20.20;;
19814;SDS011;10067;53.092;8.800;2023-02-15T10:24:09;27.75;;;19.63;;
19814;SDS011;10067;53.092;8.800;2023-02-15T10:26:38;29.85;;;20.83;;
19814;SDS011;10067;53.092;8.800;2023-02-15T10:29:09;27.83;;;19.67;;
19814;SDS011;10067;53.092;8.800;2023-02-15T10:31:37;28.40;;;19.38;;
19814;SDS011;10067;53.092;8.800;2023-02-15T10:34:12;25.13;;;18.80;;
19814;SDS011;10067;53.092;8.800;2023-02-15T10:36:46;29.50;;;20.23;;
19814;SDS011;10067;53.092;8.800;2023-02-15T10:39:17;28.95;;;19.90;;
19814;SDS011;10067;53.092;8.800;2023-02-15T10:41:46;25.48;;;20.48;;
19814;SDS011;10067;53.092;8.800;2023-02-15T10:44:23;24.60;;;20.55;;
19814;SDS011;10067;53.092;8.800;2023-02-15T10:47:09;25.90;;;19.20;;
19814;SDS011;10067;53.092;8.800;2023-02-15T10:49:42;29.48;;;20.27;;
19814;SDS011;10067;53.092;8.800;2023-02-15T10:52:17;30.33;;;21.38;;
19814;SDS011;10067;53.092;8.800;2023-02-15T10:54:45;25.35;;;20.83;;
19814;SDS011;10067;53.092;8.800;2023-02-15T10:57:14;27.73;;;20.35;;
19814;SDS011;10067;53.092;8.800;2023-02-15T10:59:51;27.25;;;20.60;;
19814;SDS011;10067;53.092;8.800;2023-02-15T11:02:24;29.35;;;21.35;;
19814;SDS011;10067;53.092;8.800;2023-02-15T11:04:53;27.77;;;20.95;;
19814;SDS011;10067;53.092;8.800;2023-02-15T11:07:21;28.35;;;20.20;;
19814;SDS011;10067;53.092;8.800;2023-02-15T11:09:50;26.30;;;21.35;;
19814;SDS011;10067;53.092;8.800;2023-02-15T11:12:19;26.77;;;21.63;;
19814;SDS011;10067;53.092;8.800;2023-02-15T11:14:49;32.50;;;20.95;;
19814;SDS011;10067;53.092;8.800;2023-02-15T11:17:19;30.67;;;21.80;;
19814;SDS011;10067;53.092;8.800;2023-02-15T11:19:50;27.00;;;20.05;;
19814;SDS011;10067;53.092;8.800;2023-02-15T11:22:18;31.55;;;21.05;;
19814;SDS011;10067;53.092;8.800;2023-02-15T11:24:47;26.55;;;20.33;;
19814;SDS011;10067;53.092;8.800;2023-02-15T11:27:17;26.80;;;21.00;;
19814;SDS011;10067;53.092;8.800;2023-02-15T11:29:50;30.27;;;21.58;;
19814;SDS011;10067;53.092;8.800;2023-02-15T11:32:18;27.02;;;21.95;;
19814;SDS011;10067;53.092;8.800;2023-02-15T11:34:47;25.95;;;20.85;;
19814;SDS011;10067;53.092;8.800;2023-02-15T11:37:17;29.40;;;21.42;;
19814;SDS011;10067;53.092;8.800;2023-02-15T11:39:44;27.88;;;21.67;;
19814;SDS011;10067;53.092;8.800;2023-02-15T11:42:17;30.90;;;22.75;;
19814;SDS011;10067;53.092;8.800;2023-02-15T11:44:51;34.13;;;24.23;;
19814;SDS011;10067;53.092;8.800;2023-02-15T11:47:25;27.50;;;21.25;;
19814;SDS011;10067;53.092;8.800;2023-02-15T11:49:52;30.98;;;21.27;;
19814;SDS011;10067;53.092;8.800;2023-02-15T11:52:23;26.02;;;20.98;;
19814;SDS011;10067;53.092;8.800;2023-02-15T11:54:51;24.33;;;19.73;;
19814;SDS011;10067;53.092;8.800;2023-02-15T11:57:22;28.55;;;21.17;;
19814;SDS011;10067;53.092;8.800;2023-02-15T11:59:56;26.45;;;21.33;;
19814;SDS011;10067;53.092;8.800;2023-02-15T12:02:24;27.98;;;20.88;;
19814;SDS011;10067;53.092;8.800;2023-02-15T12:04:58;26.02;;;21.17;;
19814;SDS011;10067;53.092;8.800;2023-02-15T12:07:31;27.70;;;21.73;;
19814;SDS011;10067;53.092;8.800;2023-02-15T12:10:03;26.05;;;21.95;;
19814;SDS011;10067;53.092;8.800;2023-02-15T12:12:32;29.95;;;21.92;;
19814;SDS011;10067;53.092;8.800;2023-02-15T12:15:00;28.75;;;20.88;;
19814;SDS011;10067;53.092;8.800;2023-02-15T12:17:27;26.40;;;21.23;;
19814;SDS011;10067;53.092;8.800;2023-02-15T12:19:55;26.30;;;20.00;;
19814;SDS011;10067;53.092;8.800;2023-02-15T12:22:23;30.20;;;21.77;;
19814;SDS011;10067;53.092;8.800;2023-02-15T12:24:52;27.17;;;21.30;;
19814;SDS011;10067;53.092;8.800;2023-02-15T12:27:19;28.58;;;22.27;;
19814;SDS011;10067;53.092;8.800;2023-02-15T12:29:48;27.17;;;21.10;;
19814;SDS011;10067;53.092;8.800;2023-02-15T12:32:19;29.08;;;23.73;;
19814;SDS011;10067;53.092;8.800;2023-02-15T12:34:46;28.65;;;22.27;;
19814;SDS011;10067;53.092;8.800;2023-02-15T12:37:15;29.15;;;22.90;;
19814;SDS011;10067;53.092;8.800;2023-02-15T12:39:50;29.48;;;22.67;;
19814;SDS011;10067;53.092;8.800;2023-02-15T12:42:18;27.67;;;21.60;;
19814;SDS011;10067;53.092;8.800;2023-02-15T12:44:56;31.35;;;22.08;;
19814;SDS011;10067;53.092;8.800;2023-02-15T12:47:23;32.80;;;23.58;;
19814;SDS011;10067;53.092;8.800;2023-02-15T12:52:43;33.83;;;25.63;;
19814;SDS011;10067;53.092;8.800;2023-02-15T12:55:11;32.00;;;24.55;;
19814;SDS011;10067;53.092;8.800;2023-02-15T12:57:45;31.38;;;24.17;;
19814;SDS011;10067;53.092;8.800;2023-02-15T13:00:25;34.55;;;25.85;;
19814;SDS011;10067;53.092;8.800;2023-02-15T13:02:53;33.53;;;24.73;;
19814;SDS011;10067;53.092;8.800;2023-02-15T13:05:23;36.67;;;26.38;;
19814;SDS011;10067;53.092;8.800;2023-02-15T13:07:53;33.88;;;25.65;;
19814;SDS011;10067;53.092;8.800;2023-02-15T13:10:22;36.42;;;25.90;;
19814;SDS011;10067;53.092;8.800;2023-02-15T13:12:52;35.88;;;25.08;;
19814;SDS011;10067;53.092;8.800;2023-02-15T13:15:23;36.05;;;26.30;;
19814;SDS011;10067;53.092;8.800;2023-02-15T13:17:51;33.97;;;26.70;;
19814;SDS011;10067;53.092;8.800;2023-02-15T13:20:18;37.55;;;26.70;;
19814;SDS011;10067;53.092;8.800;2023-02-15T13:22:47;34.13;;;26.48;;
19814;SDS011;10067;53.092;8.800;2023-02-15T13:25:17;35.40;;;26.63;;
19814;SDS011;10067;53.092;8.800;2023-02-15T13:27:45;35.05;;;25.73;;
19814;SDS011;10067;53.092;8.800;2023-02-15T13:30:22;36.50;;;27.45;;
19814;SDS011;10067;53.092;8.800;2023-02-15T13:32:51;39.35;;;28.65;;
19814;SDS011;10067;53.092;8.800;2023-02-15T13:35:18;42.55;;;28.80;;
19814;SDS011;10067;53.092;8.800;2023-02-15T13:37:50;43.28;;;29.30;;
19814;SDS011;10067;53.092;8.800;2023-02-15T13:40:18;39.63;;;28.88;;
19814;SDS011;10067;53.092;8.800;2023-02-15T13:42:49;43.42;;;29.50;;
19814;SDS011;10067;53.092;8.800;2023-02-15T13:45:30;43.80;;;29.20;;
19814;SDS011;10067;53.092;8.800;2023-02-15T13:47:59;43.72;;;28.40;;
19814;SDS011;10067;53.092;8.800;2023-02-15T13:50:34;44.35;;;29.73;;
19814;SDS011;10067;53.092;8.800;2023-02-15T13:53:13;44.88;;;29.15;;
19814;SDS011;10067;53.092;8.800;2023-02-15T13:55:48;41.35;;;28.30;;
19814;SDS011;10067;53.092;8.800;2023-02-15T14:01:02;39.70;;;28.35;;
19814;SDS011;10067;53.092;8.800;2023-02-15T14:03:47;44.80;;;29.45;;
19814;SDS011;10067;53.092;8.800;2023-02-15T14:06:25;46.03;;;28.95;;
19814;SDS011;10067;53.092;8.800;2023-02-15T14:08:58;42.08;;;28.55;;
19814;SDS011;10067;53.092;8.800;2023-02-15T14:11:29;45.55;;;28.70;;
19814;SDS011;10067;53.092;8.800;2023-02-15T14:14:11;41.58;;;29.17;;
19814;SDS011;10067;53.092;8.800;2023-02-15T14:16:47;43.22;;;28.83;;
19814;SDS011;10067;53.092;8.800;2023-02-15T14:19:19;43.85;;;28.38;;
19814;SDS011;10067;53.092;8.800;2023-02-15T14:21:50;43.95;;;27.67;;
19814;SDS011;10067;53.092;8.800;2023-02-15T14:24:25;46.35;;;28.38;;
19814;SDS011;10067;53.092;8.800;2023-02-15T14:26:55;42.10;;;28.67;;
19814;SDS011;10067;53.092;8.800;2023-02-15T14:29:28;46.58;;;28.85;;
19814;SDS011;10067;53.092;8.800;2023-02-15T14:32:04;43.13;;;26.98;;
19814;SDS011;10067;53.092;8.800;2023-02-15T14:34:40;37.30;;;25.75;;
19814;SDS011;10067;53.092;8.800;2023-02-15T14:37:09;45.22;;;28.02;;
19814;SDS011;10067;53.092;8.800;2023-02-15T14:39:41;44.75;;;27.40;;
19814;SDS011;10067;53.092;8.800;2023-02-15T14:42:28;38.72;;;25.52;;
19814;SDS011;10067;53.092;8.800;2023-02-15T14:44:58;44.40;;;27.60;;
19814;SDS011;10067;53.092;8.800;2023-02-15T14:47:31;39.15;;;25.77;;
19814;SDS011;10067;53.092;8.800;2023-02-15T14:49:59;43.38;;;27.08;;